Time;durP1;ratioP1;P1;durP2;ratioP2;P2;SDS_P1;SDS_P2;PMS_P1;PMS_P2;Temp;Humidity;BMP_temperature;BMP_pressure;BME280_temperature;BME280_humidity;BME280_pressure;Samples;Min_cycle;Max_cycle;Signal;HPM_P1;HPM_P2
2023/07/30 00:00:07;;;;;;;;;;;;;;;;;;1271696;23;19930;-19
2023/07/30 00:00:37;;;;;;;;;;;;;;;;;;1271856;23;19991;-19
2023/07/30 00:01:07;;;;;;;;;;;;;;;;;;1271779;23;19911;-19
2023/07/30 00:01:37;;;;;;;;;;;;;;;;;;1271933;23;19905;-18
2023/07/30 00:02:08;;;;;;;;;;;;;;;;;;1265204;23;19904;-21
2023/07/30 00:02:38;;;;;;;;;;;;;;;;;;1265561;23;19905;-21
2023/07/30 00:03:08;;;;;;;;;;;;;;;;;;1265320;23;19912;-18
2023/07/30 00:03:38;;;;;;;;;;;;;;;;;;1265536;23;19911;-20
2023/07/30 00:04:09;;;;;;;;;;;;;;;;;;1271803;23;19904;-17
2023/07/30 00:04:39;;;;;;;;;;;;;;;;;;1271919;23;19904;-17
2023/07/30 00:05:09;;;;;;;;;;;;;;;;;;1271709;23;19904;-15
2023/07/30 00:05:39;;;;;;;;;;;;;;;;;;1271915;23;19905;-17
2023/07/30 00:06:09;;;;;;;;;;;;;;;;;;1271754;23;19962;-21
2023/07/30 00:06:40;;;;;;;;;;;;;;;;;;1271930;23;19904;-18
2023/07/30 00:07:11;;;;;;;;;;;;;;;;;;1271596;23;19905;-19
2023/07/30 00:07:41;;;;;;;;;;;;;;;;;;1271900;23;19919;-19
2023/07/30 00:08:11;;;;;;;;;;;;;;;;;;1271718;23;20384;-17
2023/07/30 00:08:41;;;;;;;;;;;;;;;;;;1272004;23;20325;-21
2023/07/30 00:09:11;;;;;;;;;;;;;;;;;;1271718;23;19958;-17
2023/07/30 00:09:42;;;;;;;;;;;;;;;;;;1271953;23;20218;-19
2023/07/30 00:10:12;;;;;;;;;;;;;;;;;;1271542;23;19904;-19
2023/07/30 00:10:42;;;;;;;;;;;;;;;;;;1271919;23;20321;-19
2023/07/30 00:11:12;;;;;;;;;;;;;;;;;;1271774;23;20314;-19
2023/07/30 00:11:43;;;;;;;;;;;;;;;;;;1271841;23;19939;-19
2023/07/30 00:12:14;;;;;;;;;;;;;;;;;;1271675;23;19904;-21
2023/07/30 00:12:44;;;;;;;;;;;;;;;;;;1271973;23;19908;-19
2023/07/30 00:13:14;;;;;;;;;;;;;;;;;;1271822;23;19911;-21
2023/07/30 00:13:44;;;;;;;;;;;;;;;;;;1271869;23;20444;-16
2023/07/30 00:14:15;;;;;;;;;;;;;;;;;;1271732;23;20271;-19
2023/07/30 00:14:45;;;;;;;;;;;;;;;;;;1271836;23;20260;-20
2023/07/30 00:15:15;;;;;;;;;;;;;;;;;;1271636;23;19939;-18
2023/07/30 00:15:45;;;;;;;;;;;;;;;;;;1271906;23;19912;-18
2023/07/30 00:16:16;;;;;;;;;;;;;;;;;;1271804;23;19913;-21
2023/07/30 00:16:46;;;;;;;;;;;;;;;;;;1271724;23;19962;-20
2023/07/30 00:17:16;;;;;;;;;;;;;;;;;;1271831;23;19901;-19
2023/07/30 00:17:46;;;;;;;;;;;;;;;;;;1271924;23;19958;-18
2023/07/30 00:18:16;;;;;;;;;;;;;;;;;;1271794;23;19911;-18
2023/07/30 00:18:47;;;;;;;;;;;;;;;;;;1271965;23;19912;-18
2023/07/30 00:19:17;;;;;;;;;;;;;;;;;;1271676;23;19912;-20
2023/07/30 00:19:47;;;;;;;;;;;;;;;;;;1271876;23;19944;-20
2023/07/30 00:20:17;;;;;;;;;;;;;;;;;;1271683;23;19992;-19
2023/07/30 00:20:48;;;;;;;;;;;;;;;;;;1271750;23;19909;-18
2023/07/30 00:21:18;;;;;;;;;;;;;;;;;;1271757;23;19935;-19
2023/07/30 00:21:48;;;;;;;;;;;;;;;;;;1271894;23;19908;-17
2023/07/30 00:22:18;;;;;;;;;;;;;;;;;;1271741;23;19904;-18
2023/07/30 00:22:48;;;;;;;;;;;;;;;;;;1271884;23;19915;-19
2023/07/30 00:23:19;;;;;;;;;;;;;;;;;;1271857;23;19905;-20
2023/07/30 00:23:49;;;;;;;;;;;;;;;;;;1271767;23;19915;-20
2023/07/30 00:24:19;;;;;;;;;;;;;;;;;;1271831;23;19905;-20
2023/07/30 00:24:49;;;;;;;;;;;;;;;;;;1271808;23;19909;-20
2023/07/30 00:25:19;;;;;;;;;;;;;;;;;;1271894;23;19912;-19
2023/07/30 00:25:50;;;;;;;;;;;;;;;;;;1271664;23;19909;-19
2023/07/30 00:26:20;;;;;;;;;;;;;;;;;;1265421;23;20003;-21
2023/07/30 00:26:50;;;;;;;;;;;;;;;;;;1265184;23;19947;-19
2023/07/30 00:27:20;;;;;;;;;;;;;;;;;;1265482;23;19912;-19
2023/07/30 00:27:51;;;;;;;;;;;;;;;;;;1265287;23;20381;-21
2023/07/30 00:28:21;;;;;;;;;;;;;;;;;;1271952;23;19995;-19
2023/07/30 00:28:51;;;;;;;;;;;;;;;;;;1271618;23;19980;-18
2023/07/30 00:29:21;;;;;;;;;;;;;;;;;;1271968;23;19995;-21
2023/07/30 00:29:52;;;;;;;;;;;;;;;;;;1271711;23;19911;-17
2023/07/30 00:30:22;;;;;;;;;;;;;;;;;;1271864;23;19911;-19
2023/07/30 00:30:52;;;;;;;;;;;;;;;;;;1271682;23;19912;-19
2023/07/30 00:31:22;;;;;;;;;;;;;;;;;;1271891;23;19911;-18
2023/07/30 00:31:52;;;;;;;;;;;;;;;;;;1271702;23;19905;-16
2023/07/30 00:32:23;;;;;;;;;;;;;;;;;;1271953;23;19905;-21
2023/07/30 00:32:53;;;;;;;;;;;;;;;;;;1271691;23;20401;-19
2023/07/30 00:33:23;;;;;;;;;;;;;;;;;;1271917;23;19987;-18
2023/07/30 00:33:54;;;;;;;;;;;;;;;;;;1271675;23;19989;-18
2023/07/30 00:34:24;;;;;;;;;;;;;;;;;;1271941;23;19905;-19
2023/07/30 00:34:54;;;;;;;;;;;;;;;;;;1271757;23;20313;-18
2023/07/30 00:35:24;;;;;;;;;;;;;;;;;;1271960;23;20321;-20
2023/07/30 00:35:55;;;;;;;;;;;;;;;;;;1271701;23;19905;-19
2023/07/30 00:36:25;;;;;;;;;;;;;;;;;;1271941;23;19912;-20
2023/07/30 00:36:55;;;;;;;;;;;;;;;;;;1271632;23;19911;-20
2023/07/30 00:37:25;;;;;;;;;;;;;;;;;;1271865;23;19917;-21
2023/07/30 00:37:55;;;;;;;;;;;;;;;;;;1271673;23;19920;-21
2023/07/30 00:38:26;;;;;;;;;;;;;;;;;;1271954;23;19986;-20
2023/07/30 00:38:56;;;;;;;;;;;;;;;;;;1271668;23;19913;-20
2023/07/30 00:39:26;;;;;;;;;;;;;;;;;;1271784;23;19912;-18
2023/07/30 00:39:56;;;;;;;;;;;;;;;;;;1271713;23;19984;-20
2023/07/30 00:40:27;;;;;;;;;;;;;;;;;;1271907;23;19905;-20
2023/07/30 00:40:57;;;;;;;;;;;;;;;;;;1271707;23;19983;-18
2023/07/30 00:41:27;;;;;;;;;;;;;;;;;;1271869;23;20339;-17
2023/07/30 00:41:57;;;;;;;;;;;;;;;;;;1271734;23;19905;-20
2023/07/30 00:42:28;;;;;;;;;;;;;;;;;;1271933;23;19905;-19
2023/07/30 00:42:58;;;;;;;;;;;;;;;;;;1271716;23;19912;-20
2023/07/30 00:43:28;;;;;;;;;;;;;;;;;;1271769;23;19943;-20
2023/07/30 00:43:58;;;;;;;;;;;;;;;;;;1271739;23;19976;-17
2023/07/30 00:44:29;;;;;;;;;;;;;;;;;;1271817;23;19995;-19
2023/07/30 00:44:59;;;;;;;;;;;;;;;;;;1271737;23;19927;-19
2023/07/30 00:45:29;;;;;;;;;;;;;;;;;;1271838;23;19909;-21
2023/07/30 00:45:59;;;;;;;;;;;;;;;;;;1271670;23;19911;-20
2023/07/30 00:46:29;;;;;;;;;;;;;;;;;;1271920;23;19905;-21
2023/07/30 00:47:00;;;;;;;;;;;;;;;;;;1271730;23;19908;-18
2023/07/30 00:47:30;;;;;;;;;;;;;;;;;;1271852;23;20381;-19
2023/07/30 00:48:00;;;;;;;;;;;;;;;;;;1271696;23;19905;-20
2023/07/30 00:48:30;;;;;;;;;;;;;;;;;;1271966;23;20387;-21
2023/07/30 00:49:01;;;;;;;;;;;;;;;;;;1271662;23;19983;-21
2023/07/30 00:49:31;;;;;;;;;;;;;;;;;;1271916;23;19991;-19
2023/07/30 00:50:01;;;;;;;;;;;;;;;;;;1271627;23;19949;-20
2023/07/30 00:50:31;;;;;;;;;;;;;;;;;;1271705;23;19962;-20
2023/07/30 00:51:02;;;;;;;;;;;;;;;;;;1271743;23;19987;-18
2023/07/30 00:51:32;;;;;;;;;;;;;;;;;;1271867;23;19965;-20
2023/07/30 00:52:02;;;;;;;;;;;;;;;;;;1271651;23;19958;-18
2023/07/30 00:52:33;;;;;;;;;;;;;;;;;;1271892;23;19934;-20
2023/07/30 00:53:04;;;;;;;;;;;;;;;;;;1271682;23;19991;-17
2023/07/30 00:53:34;;;;;;;;;;;;;;;;;;1271883;23;20405;-19
2023/07/30 00:54:04;;;;;;;;;;;;;;;;;;1271766;23;19904;-17
2023/07/30 00:54:34;;;;;;;;;;;;;;;;;;1271915;23;19911;-17
2023/07/30 00:55:04;;;;;;;;;;;;;;;;;;1271736;23;19911;-20
2023/07/30 00:55:35;;;;;;;;;;;;;;;;;;1271867;23;20333;-17
2023/07/30 00:56:05;;;;;;;;;;;;;;;;;;1271525;23;19905;-20
2023/07/30 00:56:35;;;;;;;;;;;;;;;;;;1271927;23;20344;-20
2023/07/30 00:57:06;;;;;;;;;;;;;;;;;;1271699;23;20325;-18
2023/07/30 00:57:37;;;;;;;;;;;;;;;;;;1271704;23;19981;-21
2023/07/30 00:58:07;;;;;;;;;;;;;;;;;;1271310;23;20374;-20
2023/07/30 00:58:37;;;;;;;;;;;;;;;;;;1271727;23;20314;-19
2023/07/30 00:59:07;;;;;;;;;;;;;;;;;;1271598;23;19911;-20
2023/07/30 00:59:38;;;;;;;;;;;;;;;;;;1271924;23;19936;-18
2023/07/30 01:00:09;;;;;;;;;;;;;;;;;;1271726;23;19987;-16
2023/07/30 01:00:39;;;;;;;;;;;;;;;;;;1271864;23;19927;-19
2023/07/30 01:01:09;;;;;;;;;;;;;;;;;;1271705;23;19983;-19
2023/07/30 01:01:39;;;;;;;;;;;;;;;;;;1271887;23;19905;-16
2023/07/30 01:02:09;;;;;;;;;;;;;;;;;;1271629;23;19904;-19
2023/07/30 01:02:40;;;;;;;;;;;;;;;;;;1271922;23;20022;-18
2023/07/30 01:03:10;;;;;;;;;;;;;;;;;;1271768;23;19934;-20
2023/07/30 01:03:40;;;;;;;;;;;;;;;;;;1271812;23;19955;-20
2023/07/30 01:04:10;;;;;;;;;;;;;;;;;;1271658;23;19989;-21
2023/07/30 01:04:41;;;;;;;;;;;;;;;;;;1271865;23;19912;-18
2023/07/30 01:05:11;;;;;;;;;;;;;;;;;;1271574;23;19911;-19
2023/07/30 01:05:41;;;;;;;;;;;;;;;;;;1271868;23;19908;-20
2023/07/30 01:06:11;;;;;;;;;;;;;;;;;;1271678;23;19905;-19
2023/07/30 01:06:42;;;;;;;;;;;;;;;;;;1271927;23;19908;-17
2023/07/30 01:07:12;;;;;;;;;;;;;;;;;;1271675;23;19905;-17
2023/07/30 01:07:42;;;;;;;;;;;;;;;;;;1271876;23;19916;-18
2023/07/30 01:08:12;;;;;;;;;;;;;;;;;;1271728;23;19940;-18
2023/07/30 01:08:43;;;;;;;;;;;;;;;;;;1271761;23;19991;-21
2023/07/30 01:09:13;;;;;;;;;;;;;;;;;;1271712;23;20393;-16
2023/07/30 01:09:43;;;;;;;;;;;;;;;;;;1271756;23;19909;-20
2023/07/30 01:10:13;;;;;;;;;;;;;;;;;;1271550;23;19955;-17
2023/07/30 01:10:44;;;;;;;;;;;;;;;;;;1271744;23;19908;-21
2023/07/30 01:11:14;;;;;;;;;;;;;;;;;;1271703;23;19905;-16
2023/07/30 01:11:44;;;;;;;;;;;;;;;;;;1271895;23;19909;-20
2023/07/30 01:12:14;;;;;;;;;;;;;;;;;;1271738;23;19904;-19
2023/07/30 01:12:45;;;;;;;;;;;;;;;;;;1271734;23;19951;-18
2023/07/30 01:13:15;;;;;;;;;;;;;;;;;;1271639;23;19983;-19
2023/07/30 01:13:45;;;;;;;;;;;;;;;;;;1271849;23;19909;-19
2023/07/30 01:14:15;;;;;;;;;;;;;;;;;;1271706;23;20005;-18
2023/07/30 01:14:46;;;;;;;;;;;;;;;;;;1271847;23;19913;-19
2023/07/30 01:15:16;;;;;;;;;;;;;;;;;;1271629;23;20332;-20
2023/07/30 01:15:46;;;;;;;;;;;;;;;;;;1271899;23;19995;-20
2023/07/30 01:16:16;;;;;;;;;;;;;;;;;;1271689;23;19927;-17
2023/07/30 01:16:46;;;;;;;;;;;;;;;;;;1271732;23;20003;-20
2023/07/30 01:17:17;;;;;;;;;;;;;;;;;;1271746;23;19901;-18
2023/07/30 01:17:47;;;;;;;;;;;;;;;;;;1271892;23;19962;-20
2023/07/30 01:18:17;;;;;;;;;;;;;;;;;;1271702;23;19905;-16
2023/07/30 01:18:47;;;;;;;;;;;;;;;;;;1271904;23;19915;-20
2023/07/30 01:19:18;;;;;;;;;;;;;;;;;;1271491;23;19905;-18
2023/07/30 01:19:49;;;;;;;;;;;;;;;;;;1271842;23;20290;-17
2023/07/30 01:20:19;;;;;;;;;;;;;;;;;;1271892;23;19912;-19
2023/07/30 01:20:50;;;;;;;;;;;;;;;;;;1271665;23;19932;-18
2023/07/30 01:21:20;;;;;;;;;;;;;;;;;;1271776;23;19905;-17
2023/07/30 01:21:50;;;;;;;;;;;;;;;;;;1271612;23;19909;-20
2023/07/30 01:22:20;;;;;;;;;;;;;;;;;;1271933;23;20218;-18
2023/07/30 01:22:50;;;;;;;;;;;;;;;;;;1271647;23;20295;-19
2023/07/30 01:23:21;;;;;;;;;;;;;;;;;;1271932;23;19966;-21
2023/07/30 01:23:51;;;;;;;;;;;;;;;;;;1271676;23;19904;-19
2023/07/30 01:24:21;;;;;;;;;;;;;;;;;;1271964;23;19928;-16
2023/07/30 01:24:51;;;;;;;;;;;;;;;;;;1271666;23;19911;-21
2023/07/30 01:25:22;;;;;;;;;;;;;;;;;;1271817;23;19954;-19
2023/07/30 01:25:52;;;;;;;;;;;;;;;;;;1271648;23;19905;-21
2023/07/30 01:26:22;;;;;;;;;;;;;;;;;;1271892;23;19905;-21
2023/07/30 01:26:53;;;;;;;;;;;;;;;;;;1271603;23;20377;-18
2023/07/30 01:27:23;;;;;;;;;;;;;;;;;;1271864;23;19904;-21
2023/07/30 01:27:53;;;;;;;;;;;;;;;;;;1271619;23;20314;-20
2023/07/30 01:28:24;;;;;;;;;;;;;;;;;;1271752;23;19952;-18
2023/07/30 01:28:54;;;;;;;;;;;;;;;;;;1271617;23;20325;-17
2023/07/30 01:29:24;;;;;;;;;;;;;;;;;;1271829;23;20279;-19
2023/07/30 01:29:54;;;;;;;;;;;;;;;;;;1271699;23;20238;-19
2023/07/30 01:30:25;;;;;;;;;;;;;;;;;;1271871;23;20241;-21
2023/07/30 01:30:55;;;;;;;;;;;;;;;;;;1271637;23;20253;-18
2023/07/30 01:31:25;;;;;;;;;;;;;;;;;;1271980;23;20229;-21
2023/07/30 01:31:55;;;;;;;;;;;;;;;;;;1271642;23;19904;-19
2023/07/30 01:32:25;;;;;;;;;;;;;;;;;;1271834;23;19913;-21
2023/07/30 01:32:56;;;;;;;;;;;;;;;;;;1271569;23;20468;-20
2023/07/30 01:33:26;;;;;;;;;;;;;;;;;;1271881;23;20328;-19
2023/07/30 01:33:56;;;;;;;;;;;;;;;;;;1271581;23;20384;-19
2023/07/30 01:34:27;;;;;;;;;;;;;;;;;;1271706;23;19955;-17
2023/07/30 01:34:57;;;;;;;;;;;;;;;;;;1271695;23;20245;-17
2023/07/30 01:35:27;;;;;;;;;;;;;;;;;;1271822;23;20321;-18
2023/07/30 01:35:57;;;;;;;;;;;;;;;;;;1271698;23;20240;-20
2023/07/30 01:36:28;;;;;;;;;;;;;;;;;;1271865;23;19908;-20
2023/07/30 01:36:58;;;;;;;;;;;;;;;;;;1271674;23;19939;-18
2023/07/30 01:37:28;;;;;;;;;;;;;;;;;;1271870;23;19911;-19
2023/07/30 01:37:58;;;;;;;;;;;;;;;;;;1271649;23;19905;-20
2023/07/30 01:38:28;;;;;;;;;;;;;;;;;;1265284;23;19952;-20
2023/07/30 01:38:59;;;;;;;;;;;;;;;;;;1265244;23;20399;-17
2023/07/30 01:39:29;;;;;;;;;;;;;;;;;;1265355;23;20325;-18
2023/07/30 01:39:59;;;;;;;;;;;;;;;;;;1265256;23;20383;-19
2023/07/30 01:40:29;;;;;;;;;;;;;;;;;;1271821;23;19931;-19
2023/07/30 01:40:59;;;;;;;;;;;;;;;;;;1271641;23;19911;-19
2023/07/30 01:41:30;;;;;;;;;;;;;;;;;;1271842;23;19927;-19
2023/07/30 01:42:00;;;;;;;;;;;;;;;;;;1271630;23;19904;-20
2023/07/30 01:42:30;;;;;;;;;;;;;;;;;;1271760;23;19905;-21
2023/07/30 01:43:00;;;;;;;;;;;;;;;;;;1271516;23;19912;-19
2023/07/30 01:43:30;;;;;;;;;;;;;;;;;;1271900;23;19904;-18
2023/07/30 01:44:01;;;;;;;;;;;;;;;;;;1271639;23;19955;-18
2023/07/30 01:44:31;;;;;;;;;;;;;;;;;;1271456;23;19957;-21
2023/07/30 01:45:01;;;;;;;;;;;;;;;;;;1271489;23;19908;-19
2023/07/30 01:45:31;;;;;;;;;;;;;;;;;;1271726;23;19909;-20
2023/07/30 01:46:02;;;;;;;;;;;;;;;;;;1271579;23;19911;-18
2023/07/30 01:46:32;;;;;;;;;;;;;;;;;;1271836;23;20214;-20
2023/07/30 01:47:02;;;;;;;;;;;;;;;;;;1271816;23;19904;-17
2023/07/30 01:47:32;;;;;;;;;;;;;;;;;;1271968;23;19914;-20
2023/07/30 01:48:03;;;;;;;;;;;;;;;;;;1271655;23;19905;-18
2023/07/30 01:48:33;;;;;;;;;;;;;;;;;;1272110;23;19905;-17
2023/07/30 01:49:03;;;;;;;;;;;;;;;;;;1271569;23;20223;-18
2023/07/30 01:49:33;;;;;;;;;;;;;;;;;;1271856;23;19984;-16
2023/07/30 01:50:03;;;;;;;;;;;;;;;;;;1271606;23;19904;-19
2023/07/30 01:50:34;;;;;;;;;;;;;;;;;;1271764;23;19999;-18
2023/07/30 01:51:04;;;;;;;;;;;;;;;;;;1271508;23;19911;-20
2023/07/30 01:51:34;;;;;;;;;;;;;;;;;;1271846;23;20218;-20
2023/07/30 01:52:04;;;;;;;;;;;;;;;;;;1271716;23;19912;-21
2023/07/30 01:52:35;;;;;;;;;;;;;;;;;;1271843;23;19905;-17
2023/07/30 01:53:05;;;;;;;;;;;;;;;;;;1271530;23;19905;-16
2023/07/30 01:53:35;;;;;;;;;;;;;;;;;;1271687;23;19950;-20
2023/07/30 01:54:05;;;;;;;;;;;;;;;;;;1271588;23;20388;-19
2023/07/30 01:54:36;;;;;;;;;;;;;;;;;;1271928;23;20359;-20
2023/07/30 01:55:06;;;;;;;;;;;;;;;;;;1271623;23;20345;-15
2023/07/30 01:55:36;;;;;;;;;;;;;;;;;;1271815;23;19909;-18
2023/07/30 01:56:06;;;;;;;;;;;;;;;;;;1271585;23;19913;-17
2023/07/30 01:56:37;;;;;;;;;;;;;;;;;;1271941;23;19905;-19
2023/07/30 01:57:07;;;;;;;;;;;;;;;;;;1271591;23;19995;-19
2023/07/30 01:57:37;;;;;;;;;;;;;;;;;;1271701;23;19911;-18
2023/07/30 01:58:08;;;;;;;;;;;;;;;;;;1271659;23;19912;-18
2023/07/30 01:58:38;;;;;;;;;;;;;;;;;;1271858;23;19905;-18
2023/07/30 01:59:08;;;;;;;;;;;;;;;;;;1271495;23;20188;-15
2023/07/30 01:59:38;;;;;;;;;;;;;;;;;;1271829;23;19911;-19
2023/07/30 02:00:09;;;;;;;;;;;;;;;;;;1271510;23;20323;-19
2023/07/30 02:00:39;;;;;;;;;;;;;;;;;;1271695;23;19940;-21
2023/07/30 02:01:10;;;;;;;;;;;;;;;;;;1271668;23;20286;-20
2023/07/30 02:01:40;;;;;;;;;;;;;;;;;;1271833;23;20309;-16
2023/07/30 02:02:10;;;;;;;;;;;;;;;;;;1271572;23;19909;-16
2023/07/30 02:02:40;;;;;;;;;;;;;;;;;;1271811;23;19912;-21
2023/07/30 02:03:10;;;;;;;;;;;;;;;;;;1271597;23;19911;-19
2023/07/30 02:03:41;;;;;;;;;;;;;;;;;;1271859;23;19999;-17
2023/07/30 02:04:11;;;;;;;;;;;;;;;;;;1271568;23;19950;-19
2023/07/30 02:04:41;;;;;;;;;;;;;;;;;;1271811;23;19909;-17
2023/07/30 02:05:12;;;;;;;;;;;;;;;;;;1271533;23;19911;-17
2023/07/30 02:05:42;;;;;;;;;;;;;;;;;;1271843;23;19908;-18
2023/07/30 02:06:12;;;;;;;;;;;;;;;;;;1271613;23;19905;-18
2023/07/30 02:06:42;;;;;;;;;;;;;;;;;;1271801;23;19951;-19
2023/07/30 02:07:12;;;;;;;;;;;;;;;;;;1271708;23;19979;-18
2023/07/30 02:07:43;;;;;;;;;;;;;;;;;;1271753;23;19909;-17
2023/07/30 02:08:15;;;;;;;;;;;;;;;;;;1271475;23;19911;-19
2023/07/30 02:08:46;;;;;;;;;;;;;;;;;;1271762;23;19914;-18
2023/07/30 02:09:16;;;;;;;;;;;;;;;;;;1271394;23;20302;-18
2023/07/30 02:09:46;;;;;;;;;;;;;;;;;;1271600;23;19909;-19
2023/07/30 02:10:16;;;;;;;;;;;;;;;;;;1271547;23;20317;-19
2023/07/30 02:10:47;;;;;;;;;;;;;;;;;;1271785;23;20383;-21
2023/07/30 02:11:17;;;;;;;;;;;;;;;;;;1271643;23;19905;-19
2023/07/30 02:11:47;;;;;;;;;;;;;;;;;;1271735;23;19916;-19
2023/07/30 02:12:17;;;;;;;;;;;;;;;;;;1271591;23;19904;-20
2023/07/30 02:12:47;;;;;;;;;;;;;;;;;;1271793;23;19909;-19
2023/07/30 02:13:18;;;;;;;;;;;;;;;;;;1271576;23;19951;-19
2023/07/30 02:13:48;;;;;;;;;;;;;;;;;;1271730;23;19916;-19
2023/07/30 02:14:18;;;;;;;;;;;;;;;;;;1271601;23;19912;-20
2023/07/30 02:14:48;;;;;;;;;;;;;;;;;;1271854;23;19908;-18
2023/07/30 02:15:19;;;;;;;;;;;;;;;;;;1271637;23;19936;-16
2023/07/30 02:15:49;;;;;;;;;;;;;;;;;;1271761;23;20383;-19
2023/07/30 02:16:19;;;;;;;;;;;;;;;;;;1271772;23;20280;-18
2023/07/30 02:16:49;;;;;;;;;;;;;;;;;;1271445;23;19919;-18
2023/07/30 02:17:20;;;;;;;;;;;;;;;;;;1271733;23;19905;-19
2023/07/30 02:17:50;;;;;;;;;;;;;;;;;;1265068;23;19935;-20
2023/07/30 02:18:20;;;;;;;;;;;;;;;;;;1259202;23;19906;-16
2023/07/30 02:18:51;;;;;;;;;;;;;;;;;;1259133;23;19912;-17
2023/07/30 02:19:21;;;;;;;;;;;;;;;;;;1259296;23;20362;-20
2023/07/30 02:19:51;;;;;;;;;;;;;;;;;;1265138;23;20296;-20
2023/07/30 02:20:21;;;;;;;;;;;;;;;;;;1271776;23;19987;-21
2023/07/30 02:20:52;;;;;;;;;;;;;;;;;;1271514;23;19999;-16
2023/07/30 02:21:22;;;;;;;;;;;;;;;;;;1271700;23;19911;-17
2023/07/30 02:21:52;;;;;;;;;;;;;;;;;;1271612;23;20283;-19
2023/07/30 02:22:22;;;;;;;;;;;;;;;;;;1271720;23;19905;-18
2023/07/30 02:22:52;;;;;;;;;;;;;;;;;;1271545;23;19927;-20
2023/07/30 02:23:23;;;;;;;;;;;;;;;;;;1271825;23;19904;-18
2023/07/30 02:23:53;;;;;;;;;;;;;;;;;;1271581;23;19912;-18
2023/07/30 02:24:23;;;;;;;;;;;;;;;;;;1271785;23;19905;-17
2023/07/30 02:24:53;;;;;;;;;;;;;;;;;;1271600;23;19905;-20
2023/07/30 02:25:24;;;;;;;;;;;;;;;;;;1271703;23;19978;-17
2023/07/30 02:25:54;;;;;;;;;;;;;;;;;;1271544;23;19905;-21
2023/07/30 02:26:24;;;;;;;;;;;;;;;;;;1271670;23;19911;-18
2023/07/30 02:26:54;;;;;;;;;;;;;;;;;;1271568;23;20275;-21
2023/07/30 02:27:25;;;;;;;;;;;;;;;;;;1271745;23;20264;-20
2023/07/30 02:27:55;;;;;;;;;;;;;;;;;;1271660;23;19936;-17
2023/07/30 02:28:25;;;;;;;;;;;;;;;;;;1271803;23;20353;-18
2023/07/30 02:28:55;;;;;;;;;;;;;;;;;;1271472;23;20003;-19
2023/07/30 02:29:25;;;;;;;;;;;;;;;;;;1271708;23;19913;-18
2023/07/30 02:29:56;;;;;;;;;;;;;;;;;;1271536;23;19920;-19
2023/07/30 02:30:26;;;;;;;;;;;;;;;;;;1271795;23;20245;-19
2023/07/30 02:30:56;;;;;;;;;;;;;;;;;;1271567;23;20340;-20
2023/07/30 02:31:26;;;;;;;;;;;;;;;;;;1271838;23;20237;-20
2023/07/30 02:31:57;;;;;;;;;;;;;;;;;;1271566;23;19904;-19
2023/07/30 02:32:27;;;;;;;;;;;;;;;;;;1271793;23;19905;-20
2023/07/30 02:32:57;;;;;;;;;;;;;;;;;;1271507;23;19905;-17
2023/07/30 02:33:27;;;;;;;;;;;;;;;;;;1271694;23;19912;-18
2023/07/30 02:33:58;;;;;;;;;;;;;;;;;;1271604;23;19904;-17
2023/07/30 02:34:28;;;;;;;;;;;;;;;;;;1271806;23;19908;-18
2023/07/30 02:34:58;;;;;;;;;;;;;;;;;;1271538;23;19904;-20
2023/07/30 02:35:28;;;;;;;;;;;;;;;;;;1271759;23;19912;-17
2023/07/30 02:35:58;;;;;;;;;;;;;;;;;;1271488;23;20336;-16
2023/07/30 02:36:29;;;;;;;;;;;;;;;;;;1271767;23;19912;-19
2023/07/30 02:36:59;;;;;;;;;;;;;;;;;;1271528;23;19953;-19
2023/07/30 02:37:29;;;;;;;;;;;;;;;;;;1271769;23;19905;-20
2023/07/30 02:37:59;;;;;;;;;;;;;;;;;;1271528;23;19912;-17
2023/07/30 02:38:29;;;;;;;;;;;;;;;;;;1271703;23;19904;-18
2023/07/30 02:39:00;;;;;;;;;;;;;;;;;;1271583;23;19905;-18
2023/07/30 02:39:30;;;;;;;;;;;;;;;;;;1271733;23;19920;-17
2023/07/30 02:40:01;;;;;;;;;;;;;;;;;;1271463;23;20335;-18
2023/07/30 02:40:32;;;;;;;;;;;;;;;;;;1271646;23;19913;-17
2023/07/30 02:41:02;;;;;;;;;;;;;;;;;;1271471;23;19905;-17
2023/07/30 02:41:32;;;;;;;;;;;;;;;;;;1271633;23;19954;-21
2023/07/30 02:42:02;;;;;;;;;;;;;;;;;;1271369;23;20022;-17
2023/07/30 02:42:33;;;;;;;;;;;;;;;;;;1271768;23;19905;-17
2023/07/30 02:43:03;;;;;;;;;;;;;;;;;;1271444;23;19912;-19
2023/07/30 02:43:33;;;;;;;;;;;;;;;;;;1271703;23;19911;-16
2023/07/30 02:44:04;;;;;;;;;;;;;;;;;;1271500;23;19911;-20
2023/07/30 02:44:34;;;;;;;;;;;;;;;;;;1271725;23;20337;-19
2023/07/30 02:45:05;;;;;;;;;;;;;;;;;;1271528;23;20381;-19
2023/07/30 02:45:35;;;;;;;;;;;;;;;;;;1271536;23;19916;-20
2023/07/30 02:46:06;;;;;;;;;;;;;;;;;;1271505;23;19908;-19
2023/07/30 02:46:37;;;;;;;;;;;;;;;;;;1271766;23;20321;-21
2023/07/30 02:47:07;;;;;;;;;;;;;;;;;;1271539;23;19904;-17
2023/07/30 02:47:37;;;;;;;;;;;;;;;;;;1271725;23;19950;-20
2023/07/30 02:48:07;;;;;;;;;;;;;;;;;;1271597;23;20297;-18
2023/07/30 02:48:38;;;;;;;;;;;;;;;;;;1271730;23;19911;-18
2023/07/30 02:49:08;;;;;;;;;;;;;;;;;;1271547;23;19905;-17
2023/07/30 02:49:38;;;;;;;;;;;;;;;;;;1271661;23;19981;-18
2023/07/30 02:50:09;;;;;;;;;;;;;;;;;;1271458;23;20233;-16
2023/07/30 02:50:39;;;;;;;;;;;;;;;;;;1271803;23;19938;-20
2023/07/30 02:51:09;;;;;;;;;;;;;;;;;;1271420;23;19924;-18
2023/07/30 02:51:39;;;;;;;;;;;;;;;;;;1271670;23;20367;-17
2023/07/30 02:52:10;;;;;;;;;;;;;;;;;;1271499;23;19904;-18
2023/07/30 02:52:40;;;;;;;;;;;;;;;;;;1271576;23;19918;-17
2023/07/30 02:53:10;;;;;;;;;;;;;;;;;;1271564;23;20339;-19
2023/07/30 02:53:40;;;;;;;;;;;;;;;;;;1271727;23;20245;-21
2023/07/30 02:54:10;;;;;;;;;;;;;;;;;;1271545;23;19983;-21
2023/07/30 02:54:41;;;;;;;;;;;;;;;;;;1271782;23;19919;-19
2023/07/30 02:55:11;;;;;;;;;;;;;;;;;;1271480;23;19904;-19
2023/07/30 02:55:41;;;;;;;;;;;;;;;;;;1272301;23;19909;-17
2023/07/30 02:56:12;;;;;;;;;;;;;;;;;;1272103;23;19950;-22
2023/07/30 02:56:42;;;;;;;;;;;;;;;;;;1272352;23;19938;-21
2023/07/30 02:57:12;;;;;;;;;;;;;;;;;;1271584;23;19905;-16
2023/07/30 02:57:43;;;;;;;;;;;;;;;;;;1271667;23;19916;-21
2023/07/30 02:58:13;;;;;;;;;;;;;;;;;;1271492;23;20282;-21
2023/07/30 02:58:43;;;;;;;;;;;;;;;;;;1271704;23;19916;-20
2023/07/30 02:59:13;;;;;;;;;;;;;;;;;;1271427;23;19960;-20
2023/07/30 02:59:44;;;;;;;;;;;;;;;;;;1271777;23;19986;-18
2023/07/30 03:00:14;;;;;;;;;;;;;;;;;;1271446;23;19983;-18
2023/07/30 03:00:44;;;;;;;;;;;;;;;;;;1271714;23;19912;-17
2023/07/30 03:01:14;;;;;;;;;;;;;;;;;;1271565;23;19905;-19
2023/07/30 03:01:44;;;;;;;;;;;;;;;;;;1271518;23;19909;-20
2023/07/30 03:02:15;;;;;;;;;;;;;;;;;;1271517;23;20214;-17
2023/07/30 03:02:45;;;;;;;;;;;;;;;;;;1271766;23;19909;-17
2023/07/30 03:03:15;;;;;;;;;;;;;;;;;;1271514;23;19912;-20
2023/07/30 03:03:46;;;;;;;;;;;;;;;;;;1271666;23;19912;-20
2023/07/30 03:04:16;;;;;;;;;;;;;;;;;;1271575;23;19966;-19
2023/07/30 03:04:46;;;;;;;;;;;;;;;;;;1271628;23;19940;-19
2023/07/30 03:05:17;;;;;;;;;;;;;;;;;;1271426;23;19904;-19
2023/07/30 03:05:47;;;;;;;;;;;;;;;;;;1271615;23;19908;-20
2023/07/30 03:06:17;;;;;;;;;;;;;;;;;;1271524;23;19905;-21
2023/07/30 03:06:47;;;;;;;;;;;;;;;;;;1271717;23;19913;-19
2023/07/30 03:07:19;;;;;;;;;;;;;;;;;;1271547;23;19905;-19
2023/07/30 03:07:49;;;;;;;;;;;;;;;;;;1271499;23;20000;-18
2023/07/30 03:08:20;;;;;;;;;;;;;;;;;;1271700;23;19950;-20
2023/07/30 03:08:50;;;;;;;;;;;;;;;;;;1271357;23;20000;-20
2023/07/30 03:09:20;;;;;;;;;;;;;;;;;;1271701;23;20289;-21
2023/07/30 03:09:50;;;;;;;;;;;;;;;;;;1271351;23;20306;-19
2023/07/30 03:10:20;;;;;;;;;;;;;;;;;;1271702;23;20240;-19
2023/07/30 03:10:51;;;;;;;;;;;;;;;;;;1271316;23;20222;-19
2023/07/30 03:11:21;;;;;;;;;;;;;;;;;;1271659;23;19905;-19
2023/07/30 03:11:51;;;;;;;;;;;;;;;;;;1271479;23;19939;-21
2023/07/30 03:12:21;;;;;;;;;;;;;;;;;;1271705;23;19911;-20
2023/07/30 03:12:52;;;;;;;;;;;;;;;;;;1271381;23;20033;-19
2023/07/30 03:13:22;;;;;;;;;;;;;;;;;;1271709;23;19904;-19
2023/07/30 03:13:52;;;;;;;;;;;;;;;;;;1271416;23;19904;-17
2023/07/30 03:14:22;;;;;;;;;;;;;;;;;;1271649;23;20322;-17
2023/07/30 03:14:53;;;;;;;;;;;;;;;;;;1271537;23;19905;-18
2023/07/30 03:15:23;;;;;;;;;;;;;;;;;;1271639;23;19983;-19
2023/07/30 03:15:53;;;;;;;;;;;;;;;;;;1271493;23;19949;-19
2023/07/30 03:16:23;;;;;;;;;;;;;;;;;;1271546;23;19905;-20
2023/07/30 03:16:54;;;;;;;;;;;;;;;;;;1271442;23;19932;-21
2023/07/30 03:17:24;;;;;;;;;;;;;;;;;;1271680;23;20047;-19
2023/07/30 03:17:54;;;;;;;;;;;;;;;;;;1271504;23;19905;-17
2023/07/30 03:18:24;;;;;;;;;;;;;;;;;;1271666;23;19904;-17
2023/07/30 03:18:55;;;;;;;;;;;;;;;;;;1271421;23;20314;-20
2023/07/30 03:19:25;;;;;;;;;;;;;;;;;;1271550;23;19905;-20
2023/07/30 03:19:55;;;;;;;;;;;;;;;;;;1271490;23;19991;-21
2023/07/30 03:20:25;;;;;;;;;;;;;;;;;;1271676;23;20234;-18
2023/07/30 03:20:55;;;;;;;;;;;;;;;;;;1271471;23;19920;-17
2023/07/30 03:21:26;;;;;;;;;;;;;;;;;;1271810;23;19913;-17
2023/07/30 03:21:56;;;;;;;;;;;;;;;;;;1271704;23;20003;-17
2023/07/30 03:22:26;;;;;;;;;;;;;;;;;;1272034;23;19912;-20
2023/07/30 03:22:56;;;;;;;;;;;;;;;;;;1271754;23;19904;-19
2023/07/30 03:23:27;;;;;;;;;;;;;;;;;;1271879;23;19905;-19
2023/07/30 03:23:57;;;;;;;;;;;;;;;;;;1271780;23;19931;-19
2023/07/30 03:24:27;;;;;;;;;;;;;;;;;;1272039;23;19904;-19
2023/07/30 03:24:57;;;;;;;;;;;;;;;;;;1271786;23;19912;-19
2023/07/30 03:25:27;;;;;;;;;;;;;;;;;;1271947;23;19905;-19
2023/07/30 03:25:58;;;;;;;;;;;;;;;;;;1271800;23;19904;-18
2023/07/30 03:26:28;;;;;;;;;;;;;;;;;;1272012;23;19947;-16